Aviation Digital Data Service (ADDS)

Output produced by METARs form (0055 UTC 22 September 2017)
found at http://www.aviationweather.gov/adds/metars/
 
KUAO 212332Z 2200/2224 VRB04KT P6SM VCSH SCT025 BKN040 BKN070 
     FM220300 00000KT P6SM SCT035 BKN060 
     FM221200 00000KT 2SM BR SCT007 OVC015 
     FM221600 00000KT P6SM OVC012 
     FM221800 VRB03KT P6SM SCT015 BKN035 
     FM222000 35005KT P6SM SCT040
       
KUES 212320Z 2200/2224 12006KT P6SM BKN250 
     FM220600 19004KT P6SM FEW250 
     FM221500 19011KT P6SM FEW250
       
KUIN 212320Z 2200/2224 14011KT P6SM BKN250 
     FM220200 17005KT P6SM SKC
       
KUKI 212343Z 2200/2224 31012G25KT P6SM SCT030 SCT250 
     FM220400 36006KT P6SM SCT020 SCT250 
     FM221200 00000KT 6SM BR SCT012 
     FM222000 11005KT P6SM SKC 
     FM222300 28008KT P6SM SKC
       
KUNV 212358Z 2200/2224 05003KT P6SM SCT250 
     FM220900 VRB04KT 4SM BR VCFG SCT250 
     FM221300 35004KT P6SM SCT250
       
KUTS 212336Z 2200/2224 16008KT P6SM SKC 
     FM220200 15005KT P6SM BKN250 
     FM220900 15003KT 6SM BR SCT015 
     TEMPO 2211/2213 4SM BR BKN015 
     FM221500 16007KT P6SM BKN025 
     FM221900 14008KT P6SM VCSH BKN035